Williams Lake Airport
CYWL : now visible

Airfield :











YOU CAN JOIN US ON...

 
LOGIN :

Register | Disclaimer

   EN    FR    IT 

 









Legend :    VFR   Marginal VFR   IFR   Intensive IFR   Very Intensive IFR
Visi :
Ceiling :
>= 8 km
>= 3000ft
5 to 8 km
1000 to 3000 ft
1500m to 5 km
500 to 1000 ft
800 to 1500m
200 to 500 ft
< 800m
< 200 ft
Symbols :   Thunderstorms  Fog  Heavy snow  Heavy precipitations  Wind > 20 kt







- Airport Elevation : 3085 ft
- IATA code : YWL


CYWL - Williams Lake

CURRENT METAR :
  • 231400Z 08003KT 15SM SCT070 BKN100 OVC140 03/M02 A2999 RMK AC3AC3AC2 SLP175

EXPIRED METARs :
  • 231300Z 19003KT 15SM OVC085 06/M03 A2998 RMK AC8 SLP166
  • 231200Z 21003KT 15SM OVC070 06/M04 A2995 RMK AC8 SLP159

TAF TAF CYWL
Valid from the 23 at 13:00 until the 24 at 01:00 UTC


231238Z 2313/2401 14006KT P6SM BKN100 OVC140
BECMG 2315/2317 31006KT
FM231800 31006KT P6SM OVC060 RMK NXT FCST BY 231900Z
CZVR FIR / North America



MET'MAP, your aeronautical weather chart ! - Copyright ORBIFLY December 2007 - Disclaimer

ORBIFLY MET'MAP TEAM :

Programming & Development : Alexandra Zaïnal
Concept & Development : Baudouin d'Aumeries
Co-Development & Prog : Marc-Olivier Méhu
Technical & hardware support : Manuel Goepfert

Contact : metmap@orbifly.com




SOURCES & CREDITS :

   NOAA       Earth
Advisory